Talpa, New Mexico
Current Conditions -  °F | °C
As of 2:15 PM on Tuesday 21 Oct 2014 (Local Time) from KSKX Reporting Station
Overcast Overcast  
Wind Chill: 14°   Ceiling: 7000
Heat Index: 14°   Visibility: 10mi
Dew Point:   Wind: 6mph
Humidity: 51%   Direction: 230°SW
Pressure: 30.18"   Gusts: NA
Location:  36.2692°N, 105.543°W
Report Text: KSKX 212015Z AUTO 23005KT 10SM FEW038 BKN070 OVC080 14/04 A3018 RMK AO1
Loading
Personal Weather Stations






























Interactive Weather Map
Tropical Storm Tracking
New forecast layout! Learn more

10-Day Weather Forecast

Advertisements
Track Severe Weather on mobile